< < Back
Terminal Aerodrome Forecast


Current Version              Previous Versions:   1  2  3  4  5  6  7  8  9  

Terminal Aerodrome Forecast

909
FTUS42 KJAX 280244 AAB
TAFGNV
TAF AMD
KGNV 280244Z 2803/2824 19005KT P6SM VCSH BKN060 BKN100
     FM280500 23003KT P6SM SCT080 BKN200
     FM281400 26007KT P6SM SCT030=

Latest METAR

915
SAUS70 KWBC 280200 RRE
MTRGNV
METAR KGNV 280153Z 17005KT 10SM FEW060 BKN110 31/23 A3005 RMK AO2 LTG
DSNT S SLP172 T03060228


USA.gov is the U.S. government's official web portal to all federal, state and local government web resources and services.